Mbeya Airport


Codes: HTMB/MBI
Name: Mbeya Airport
City: Mbeya
Country: Tanzania
Elevation: 5600 ft.

Photos at Mbeya Airport


   Photos courtesy of SpottingLog. You can add your own sightings and photos by signing up for a free trial today.



No photos found.

Weather at Mbeya Airport


Time (UTC)DescriptionTempratureWindCloud coverageVisibilityPressureHumidity
16-Jun-2024 12:00Few Clouds21°C4 mph, S22%10000m1016hPa39%
16-Jun-2024 15:00Few Clouds18°C7 mph, SE14%10000m1017hPa57%
16-Jun-2024 18:00Few Clouds11°C7 mph, SE12%10000m1020hPa89%
16-Jun-2024 21:00Few Clouds10°C7 mph, SE24%10000m1021hPa90%
17-Jun-2024 00:00Scattered Clouds10°C7 mph, SE33%10000m1019hPa92%
17-Jun-2024 03:00Scattered Clouds10°C7 mph, SE25%10000m1020hPa93%
17-Jun-2024 06:00Scattered Clouds14°C7 mph, SE30%10000m1021hPa72%
17-Jun-2024 09:00Few Clouds21°C4 mph, SE13%10000m1019hPa46%
17-Jun-2024 12:00Clear Sky23°C4 mph, SE9%10000m1015hPa42%
17-Jun-2024 15:00Clear Sky18°C4 mph, SE7%10000m1017hPa66%
17-Jun-2024 18:00Clear Sky12°C7 mph, SE8%10000m1021hPa90%
17-Jun-2024 21:00Few Clouds11°C7 mph, SE20%10000m1021hPa90%
18-Jun-2024 00:00Few Clouds11°C7 mph, SE20%10000m1019hPa93%
18-Jun-2024 03:00Scattered Clouds11°C7 mph, SE32%10000m1019hPa92%
18-Jun-2024 06:00Scattered Clouds16°C4 mph, SE28%10000m1020hPa68%
18-Jun-2024 09:00Clear Sky23°C2 mph, SE8%10000m1018hPa39%
18-Jun-2024 12:00Clear Sky24°C4 mph, SE4%10000m1014hPa37%
18-Jun-2024 15:00Clear Sky18°C4 mph, SE1%10000m1016hPa64%
18-Jun-2024 18:00Clear Sky13°C7 mph, SE7%10000m1020hPa89%
18-Jun-2024 21:00Few Clouds12°C4 mph, SE15%10000m1020hPa87%
19-Jun-2024 00:00Few Clouds11°C4 mph, SE11%10000m1019hPa84%
19-Jun-2024 03:00Few Clouds11°C4 mph, SE11%10000m1019hPa77%
19-Jun-2024 06:00Clear Sky17°C4 mph, SE9%10000m1019hPa54%
19-Jun-2024 09:00Clear Sky23°C2 mph, SE6%10000m1017hPa37%
19-Jun-2024 12:00Clear Sky24°C4 mph, SE9%10000m1014hPa37%
19-Jun-2024 15:00Few Clouds19°C4 mph, SE14%10000m1015hPa61%
19-Jun-2024 18:00Scattered Clouds14°C4 mph, SE26%10000m1019hPa85%
19-Jun-2024 21:00Clear Sky12°C7 mph, SE4%10000m1020hPa88%
20-Jun-2024 00:00Clear Sky12°C4 mph, SE3%10000m1019hPa88%
20-Jun-2024 03:00Few Clouds12°C4 mph, SE15%10000m1019hPa87%
20-Jun-2024 06:00Few Clouds18°C4 mph, SE18%10000m1020hPa65%
20-Jun-2024 09:00Few Clouds24°C4 mph, E12%10000m1018hPa43%
20-Jun-2024 12:00Few Clouds24°C7 mph, SE22%10000m1015hPa46%
20-Jun-2024 15:00Light Rain18°C7 mph, SE29%10000m1017hPa77%
20-Jun-2024 18:00Light Rain15°C7 mph, SE52%10000m1020hPa92%
20-Jun-2024 21:00Light Rain15°C4 mph, SE97%10000m1020hPa94%
21-Jun-2024 00:00Overcast Clouds14°C4 mph, SE98%4518m1019hPa95%
21-Jun-2024 03:00Overcast Clouds14°C4 mph, SE95%3284m1020hPa97%
21-Jun-2024 06:00Overcast Clouds16°C4 mph, SE93%10000m1022hPa85%
21-Jun-2024 09:00Scattered Clouds22°C4 mph, SE33%10000m1019hPa58%